createdAt,value
2022-08-18T00:01:54.984Z,21.17
2022-08-18T00:04:21.785Z,21.80
2022-08-18T00:07:06.684Z,21.52
2022-08-18T00:09:36.206Z,20.75
2022-08-18T00:12:09.387Z,21.33
2022-08-18T00:17:06.841Z,19.60
2022-08-18T00:19:46.182Z,20.73
2022-08-18T00:22:19.046Z,22.55
2022-08-18T00:24:49.628Z,22.30
2022-08-18T00:27:21.575Z,20.98
2022-08-18T00:29:50.070Z,20.92
2022-08-18T00:32:20.082Z,21.25
2022-08-18T00:34:46.920Z,22.02
2022-08-18T00:37:13.673Z,21.33
2022-08-18T00:39:46.049Z,22.55
2022-08-18T00:42:27.462Z,22.55
2022-08-18T00:44:58.889Z,21.83
2022-08-18T00:47:41.576Z,21.27
2022-08-18T00:50:24.889Z,22.52
2022-08-18T00:53:00.873Z,22.40
2022-08-18T00:55:29.720Z,22.65
2022-08-18T00:58:08.735Z,23.73
2022-08-18T01:00:39.609Z,24.55
2022-08-18T01:03:14.471Z,24.88
2022-08-18T01:06:11.749Z,25.10
2022-08-18T01:08:40.315Z,26.05
2022-08-18T01:11:07.916Z,24.80
2022-08-18T01:13:41.597Z,29.13
2022-08-18T01:16:27.564Z,26.85
2022-08-18T01:19:12.939Z,26.38
2022-08-18T01:21:51.194Z,25.52
2022-08-18T01:24:22.059Z,24.60
2022-08-18T01:26:52.322Z,26.40
2022-08-18T01:29:20.131Z,25.75
2022-08-18T01:31:55.636Z,25.02
2022-08-18T01:34:25.505Z,25.98
2022-08-18T01:36:53.191Z,25.10
2022-08-18T01:41:22.073Z,25.23
2022-08-18T01:42:08.569Z,24.83
2022-08-18T01:44:41.796Z,26.42
2022-08-18T01:47:11.927Z,28.20
2022-08-18T01:49:43.934Z,26.10
2022-08-18T01:52:16.083Z,25.98
2022-08-18T01:54:43.715Z,25.77
2022-08-18T01:57:13.616Z,26.73
2022-08-18T01:59:41.619Z,26.20
2022-08-18T02:02:10.419Z,27.17
2022-08-18T02:04:45.778Z,26.58
2022-08-18T02:07:14.930Z,27.23
2022-08-18T02:09:44.067Z,28.25
2022-08-18T02:12:12.599Z,26.98
2022-08-18T02:14:39.827Z,28.23
2022-08-18T02:17:11.549Z,27.83
2022-08-18T02:19:47.567Z,27.30
2022-08-18T02:22:18.769Z,25.92
2022-08-18T02:24:46.386Z,27.23
2022-08-18T02:27:14.580Z,26.25
2022-08-18T02:29:41.933Z,27.88
2022-08-18T02:32:10.911Z,25.83
2022-08-18T02:34:42.934Z,26.13
2022-08-18T02:37:15.011Z,27.42
2022-08-18T02:39:43.670Z,26.35
2022-08-18T02:42:10.689Z,25.02
2022-08-18T02:44:41.387Z,25.73
2022-08-18T02:47:09.318Z,26.40
2022-08-18T02:49:38.549Z,25.80
2022-08-18T02:52:08.788Z,24.50
2022-08-18T02:54:38.197Z,26.45
2022-08-18T02:57:10.883Z,26.52
2022-08-18T02:59:47.328Z,24.73
2022-08-18T03:02:15.260Z,24.23
2022-08-18T03:04:44.701Z,24.63
2022-08-18T03:07:13.537Z,24.85
2022-08-18T03:09:41.229Z,24.73
2022-08-18T03:12:10.356Z,24.88
2022-08-18T03:14:41.073Z,25.10
2022-08-18T03:17:11.526Z,24.13
2022-08-18T03:19:47.689Z,23.23
2022-08-18T03:22:28.521Z,23.65
2022-08-18T03:24:58.599Z,24.90
2022-08-18T03:27:26.459Z,24.55
2022-08-18T03:29:53.656Z,23.83
2022-08-18T03:32:20.458Z,25.25
2022-08-18T03:34:50.316Z,24.05
2022-08-18T03:37:17.174Z,23.90
2022-08-18T03:39:47.966Z,23.77
2022-08-18T03:42:14.782Z,24.20
2022-08-18T03:44:41.711Z,24.50
2022-08-18T03:47:10.406Z,23.60
2022-08-18T03:49:41.862Z,25.23
2022-08-18T03:52:11.295Z,24.20
2022-08-18T03:54:40.885Z,24.48
2022-08-18T03:57:10.777Z,24.35
2022-08-18T03:59:44.178Z,24.25
2022-08-18T04:02:12.281Z,22.92
2022-08-18T04:04:43.013Z,23.80
2022-08-18T04:07:17.745Z,23.02
2022-08-18T04:09:44.961Z,22.85
2022-08-18T04:12:16.635Z,22.77
2022-08-18T04:14:48.879Z,22.00
2022-08-18T04:17:23.893Z,22.40
2022-08-18T04:19:55.906Z,21.73
2022-08-18T04:22:24.915Z,22.25
2022-08-18T04:24:52.280Z,22.02
2022-08-18T04:27:20.863Z,21.77
2022-08-18T04:29:48.096Z,23.30
2022-08-18T04:32:15.228Z,23.15
2022-08-18T04:34:41.926Z,22.67
2022-08-18T04:37:11.047Z,22.40
2022-08-18T04:39:38.875Z,22.33
2022-08-18T04:42:07.855Z,22.70
2022-08-18T04:44:40.018Z,23.25
2022-08-18T04:47:10.316Z,22.58
2022-08-18T04:49:38.848Z,22.48
2022-08-18T04:52:38.822Z,21.95
2022-08-18T04:55:11.132Z,22.85
2022-08-18T04:57:44.734Z,22.45
2022-08-18T05:00:13.417Z,22.48
2022-08-18T05:02:40.964Z,22.35
2022-08-18T05:05:11.229Z,22.27
2022-08-18T05:07:46.961Z,23.23
2022-08-18T05:10:17.741Z,22.05
2022-08-18T05:12:47.548Z,22.73
2022-08-18T05:15:14.723Z,22.33
2022-08-18T05:17:41.401Z,22.02
2022-08-18T05:20:09.236Z,24.73
2022-08-18T05:22:44.398Z,23.63
2022-08-18T05:25:12.427Z,21.38
2022-08-18T05:27:43.045Z,20.80
2022-08-18T05:30:11.362Z,20.00
2022-08-18T05:32:48.273Z,19.13
2022-08-18T05:35:22.565Z,18.42
2022-08-18T05:38:24.115Z,18.75
2022-08-18T05:41:13.981Z,16.98
2022-08-18T05:43:51.708Z,17.48
2022-08-18T05:46:22.120Z,16.58
2022-08-18T05:48:49.068Z,16.77
2022-08-18T05:51:23.092Z,17.70
2022-08-18T05:54:08.360Z,16.02
2022-08-18T05:56:49.206Z,16.33
2022-08-18T05:59:26.428Z,15.85
2022-08-18T06:02:12.320Z,15.82
2022-08-18T06:04:46.234Z,16.00
2022-08-18T06:07:22.936Z,16.77
2022-08-18T06:09:54.872Z,14.23
2022-08-18T06:12:30.659Z,14.57
2022-08-18T06:15:25.661Z,14.57
2022-08-18T06:18:01.549Z,13.55
2022-08-18T06:20:44.743Z,12.50
2022-08-18T06:23:29.221Z,12.75
2022-08-18T06:26:34.817Z,13.20
2022-08-18T06:29:10.959Z,13.18
2022-08-18T06:31:52.814Z,12.40
2022-08-18T06:34:48.953Z,12.13
2022-08-18T06:37:27.277Z,11.27
2022-08-18T06:39:54.434Z,11.50
2022-08-18T06:42:26.677Z,11.02
2022-08-18T06:45:20.902Z,11.02
2022-08-18T06:47:54.074Z,11.30
2022-08-18T06:50:34.117Z,11.30
2022-08-18T06:53:26.910Z,8.40
2022-08-18T06:55:55.228Z,9.60
2022-08-18T06:58:27.178Z,9.57
2022-08-18T07:00:56.340Z,9.68
2022-08-18T07:03:37.653Z,9.00
2022-08-18T07:06:31.738Z,7.75
2022-08-18T07:09:24.198Z,8.95
2022-08-18T07:12:10.994Z,8.35
2022-08-18T07:14:44.586Z,8.55
2022-08-18T07:17:19.346Z,8.07
2022-08-18T07:19:55.481Z,7.45
2022-08-18T07:22:22.497Z,6.95
2022-08-18T07:27:49.090Z,7.68
2022-08-18T07:30:23.302Z,7.70
2022-08-18T07:32:57.552Z,7.82
2022-08-18T07:35:32.796Z,7.43
2022-08-18T07:38:38.614Z,6.45
2022-08-18T07:41:13.814Z,7.00
2022-08-18T07:44:00.651Z,6.88
2022-08-18T07:46:56.612Z,5.75
2022-08-18T07:49:26.300Z,5.07
2022-08-18T07:52:02.494Z,5.32
2022-08-18T07:54:54.553Z,5.57
2022-08-18T07:57:25.122Z,6.28
2022-08-18T08:00:10.523Z,4.13
2022-08-18T08:02:54.929Z,4.20
2022-08-18T08:05:53.821Z,4.72
2022-08-18T08:08:24.990Z,4.55
2022-08-18T08:11:01.498Z,4.70
2022-08-18T08:13:54.801Z,4.38
2022-08-18T08:16:54.785Z,4.72
2022-08-18T08:19:59.008Z,5.20
2022-08-18T08:22:53.358Z,5.05
2022-08-18T08:25:45.903Z,6.10
2022-08-18T08:29:04.574Z,5.38
2022-08-18T08:31:44.844Z,5.85
2022-08-18T08:34:24.389Z,6.85
2022-08-18T08:36:59.393Z,7.22
2022-08-18T08:39:45.332Z,7.50
2022-08-18T08:42:30.715Z,7.78
2022-08-18T08:45:09.873Z,6.72
2022-08-18T08:48:11.402Z,6.25
2022-08-18T08:50:52.765Z,6.72
2022-08-18T08:53:32.411Z,6.93
2022-08-18T08:56:03.155Z,6.70
2022-08-18T08:58:40.539Z,8.00
2022-08-18T09:01:21.712Z,7.38
2022-08-18T09:04:02.034Z,8.05
2022-08-18T09:07:11.146Z,7.55
2022-08-18T09:10:10.367Z,7.60
2022-08-18T09:12:51.336Z,7.57
2022-08-18T09:15:51.555Z,7.13
2022-08-18T09:18:45.067Z,8.45
2022-08-18T09:21:37.701Z,8.73
2022-08-18T09:24:27.324Z,9.50
2022-08-18T09:27:15.321Z,9.32
2022-08-18T09:29:55.563Z,9.40
2022-08-18T09:32:22.887Z,8.10
2022-08-18T09:35:02.788Z,7.20
2022-08-18T09:37:41.339Z,7.20
2022-08-18T09:41:01.980Z,5.93
2022-08-18T09:43:38.253Z,6.50
2022-08-18T09:46:08.760Z,7.55
2022-08-18T09:51:41.199Z,8.23
2022-08-18T09:54:13.525Z,7.60
2022-08-18T09:57:19.275Z,6.10
2022-08-18T09:59:47.772Z,5.50
2022-08-18T10:02:33.601Z,4.53
2022-08-18T10:05:20.268Z,5.43
2022-08-18T10:07:56.186Z,5.17
2022-08-18T10:10:59.383Z,5.18
2022-08-18T10:13:33.159Z,5.40
2022-08-18T10:17:15.832Z,5.15
2022-08-18T10:19:56.476Z,4.80
2022-08-18T10:22:46.330Z,4.30
2022-08-18T10:28:07.300Z,4.45
2022-08-18T10:30:57.279Z,4.00
2022-08-18T10:33:54.636Z,4.18
2022-08-18T10:36:40.075Z,4.60
2022-08-18T10:39:42.950Z,4.82
2022-08-18T10:42:34.437Z,4.93
2022-08-18T10:48:16.980Z,4.57
2022-08-18T10:51:02.422Z,4.60
2022-08-18T10:54:23.864Z,4.82
2022-08-18T10:57:08.428Z,4.97
2022-08-18T11:00:12.185Z,4.40
2022-08-18T11:03:39.621Z,4.78
2022-08-18T11:06:14.536Z,4.70
2022-08-18T11:08:55.174Z,4.47
2022-08-18T11:11:32.626Z,4.20
2022-08-18T11:14:34.111Z,4.80
2022-08-18T11:17:29.060Z,4.68
2022-08-18T11:19:56.912Z,4.72
2022-08-18T11:22:31.386Z,5.00
2022-08-18T11:25:45.198Z,4.80
2022-08-18T11:28:20.524Z,4.90
2022-08-18T11:30:56.332Z,4.32
2022-08-18T11:33:24.467Z,4.40
2022-08-18T11:36:02.287Z,4.82
2022-08-18T11:38:31.657Z,4.45
2022-08-18T11:44:20.741Z,4.50
2022-08-18T11:46:52.153Z,4.50
2022-08-18T11:49:28.590Z,4.30
2022-08-18T11:52:02.303Z,5.70
2022-08-18T11:54:50.140Z,7.07
2022-08-18T11:57:53.704Z,4.80
2022-08-18T12:00:44.015Z,4.47
2022-08-18T12:03:28.621Z,4.85
2022-08-18T12:06:19.451Z,5.82
2022-08-18T12:08:58.895Z,4.93
2022-08-18T12:11:41.303Z,4.93
2022-08-18T12:14:31.865Z,4.72
2022-08-18T12:17:11.037Z,4.95
2022-08-18T12:19:38.580Z,5.10
2022-08-18T12:22:18.100Z,5.30
2022-08-18T12:24:46.678Z,4.47
2022-08-18T12:27:21.234Z,4.95
2022-08-18T12:29:50.412Z,5.25
2022-08-18T12:32:41.535Z,5.10
2022-08-18T12:35:09.835Z,5.13
2022-08-18T12:38:11.088Z,4.68
2022-08-18T12:40:31.550Z,4.80
2022-08-18T12:42:59.584Z,5.78
2022-08-18T12:45:28.040Z,5.15
2022-08-18T12:47:55.977Z,5.03
2022-08-18T12:50:31.820Z,5.30
2022-08-18T12:53:08.346Z,5.60
2022-08-18T12:55:43.590Z,5.70
2022-08-18T12:58:12.677Z,6.03
2022-08-18T13:00:40.894Z,5.88
2022-08-18T13:03:09.150Z,5.57
2022-08-18T13:05:39.634Z,5.70
2022-08-18T13:08:30.688Z,5.55
2022-08-18T13:11:14.957Z,6.32
2022-08-18T13:13:52.989Z,5.35
2022-08-18T13:16:39.012Z,5.20
2022-08-18T13:19:11.565Z,5.35
2022-08-18T13:21:41.483Z,5.18
2022-08-18T13:24:10.423Z,5.65
2022-08-18T13:26:45.848Z,5.68
2022-08-18T13:29:17.692Z,6.00
2022-08-18T13:31:55.466Z,5.25
2022-08-18T13:34:23.118Z,5.75
2022-08-18T13:36:52.594Z,5.50
2022-08-18T13:39:24.952Z,6.00
2022-08-18T13:42:01.052Z,5.35
2022-08-18T13:44:52.920Z,5.70
2022-08-18T13:47:21.658Z,5.95
2022-08-18T13:49:59.003Z,6.22
2022-08-18T13:52:34.930Z,5.28
2022-08-18T13:55:11.674Z,5.90
2022-08-18T13:57:40.102Z,6.30
2022-08-18T14:00:18.286Z,6.15
2022-08-18T14:02:51.083Z,6.47
2022-08-18T14:05:18.913Z,6.60
2022-08-18T14:07:48.022Z,5.85
2022-08-18T14:10:17.290Z,5.80
2022-08-18T14:12:46.466Z,5.88
2022-08-18T14:15:15.571Z,6.10
2022-08-18T14:17:46.584Z,5.63
2022-08-18T14:20:34.670Z,6.05
2022-08-18T14:23:25.160Z,7.18
2022-08-18T14:26:21.843Z,6.18
2022-08-18T14:28:52.586Z,6.93
2022-08-18T14:31:20.528Z,6.88
2022-08-18T14:33:50.880Z,7.13
2022-08-18T14:36:19.403Z,6.07
2022-08-18T14:38:46.235Z,6.10
2022-08-18T14:41:19.285Z,6.32
2022-08-18T14:44:11.269Z,6.85
2022-08-18T14:46:34.892Z,6.47
2022-08-18T14:49:04.019Z,5.40
2022-08-18T14:51:33.667Z,5.40
2022-08-18T14:54:01.645Z,4.93
2022-08-18T14:56:29.634Z,5.55
2022-08-18T14:58:59.069Z,5.90
2022-08-18T15:01:27.445Z,6.15
2022-08-18T15:03:55.058Z,6.45
2022-08-18T15:06:22.937Z,6.60
2022-08-18T15:08:54.406Z,5.82
2022-08-18T15:11:24.719Z,6.70
2022-08-18T15:13:55.094Z,5.85
2022-08-18T15:16:31.695Z,6.80
2022-08-18T15:18:59.668Z,5.97
2022-08-18T15:21:47.858Z,5.38
2022-08-18T15:24:39.690Z,7.70
2022-08-18T15:27:10.264Z,7.50
2022-08-18T15:29:41.516Z,10.52
2022-08-18T15:32:10.598Z,9.10
2022-08-18T15:34:47.330Z,9.45
2022-08-18T15:37:20.469Z,10.52
2022-08-18T15:40:21.858Z,9.35
2022-08-18T15:43:01.577Z,9.50
2022-08-18T15:45:43.509Z,9.43
2022-08-18T15:48:25.264Z,10.20
2022-08-18T15:50:52.254Z,9.15
2022-08-18T15:53:22.091Z,9.70
2022-08-18T15:55:50.109Z,9.82
2022-08-18T15:58:18.209Z,8.85
2022-08-18T16:00:50.612Z,8.50
2022-08-18T16:03:18.110Z,8.73
2022-08-18T16:05:52.966Z,9.00
2022-08-18T16:08:23.595Z,9.52
2022-08-18T16:10:51.175Z,9.40
2022-08-18T16:13:19.595Z,10.30
2022-08-18T16:15:48.354Z,9.40
2022-08-18T16:18:17.227Z,10.18
2022-08-18T16:20:45.270Z,10.27
2022-08-18T16:23:13.571Z,10.15
2022-08-18T16:25:44.441Z,10.75
2022-08-18T16:28:13.351Z,10.30
2022-08-18T16:30:46.639Z,10.07
2022-08-18T16:33:13.554Z,9.80
2022-08-18T16:35:40.437Z,9.50
2022-08-18T16:38:14.654Z,9.98
2022-08-18T16:40:41.887Z,13.45
2022-08-18T16:43:10.482Z,11.57
2022-08-18T16:45:45.327Z,9.40
2022-08-18T16:48:16.642Z,10.35
2022-08-18T16:50:45.370Z,11.18
2022-08-18T16:53:12.117Z,9.38
2022-08-18T16:55:39.109Z,9.43
2022-08-18T16:58:24.278Z,10.82
2022-08-18T17:01:15.208Z,9.40
2022-08-18T17:04:04.261Z,9.43
2022-08-18T17:06:47.955Z,9.95
2022-08-18T17:09:16.008Z,10.05
2022-08-18T17:11:48.139Z,9.02
2022-08-18T17:14:24.137Z,11.13
2022-08-18T17:16:55.360Z,9.32
2022-08-18T17:19:24.550Z,8.35
2022-08-18T17:21:51.298Z,8.25
2022-08-18T17:24:28.535Z,9.07
2022-08-18T17:27:26.155Z,9.77
2022-08-18T17:30:03.927Z,8.98
2022-08-18T17:32:49.629Z,10.93
2022-08-18T17:35:23.526Z,8.75
2022-08-18T17:38:32.599Z,5.53
2022-08-18T17:41:01.794Z,5.63
2022-08-18T17:43:35.278Z,6.20
2022-08-18T17:46:27.462Z,7.05
2022-08-18T17:49:02.652Z,6.47
2022-08-18T17:51:43.493Z,5.90
2022-08-18T17:54:29.773Z,6.50
2022-08-18T17:57:08.972Z,5.88
2022-08-18T17:59:51.815Z,6.45
2022-08-18T18:02:30.230Z,10.52
2022-08-18T18:05:03.795Z,7.38
2022-08-18T18:07:52.311Z,8.43
2022-08-18T18:13:34.457Z,6.88
2022-08-18T18:16:20.346Z,6.35
2022-08-18T18:19:01.003Z,5.25
2022-08-18T18:21:58.881Z,6.20
2022-08-18T18:24:28.723Z,5.68
2022-08-18T18:26:55.733Z,5.70
2022-08-18T18:29:37.101Z,5.97
2022-08-18T18:32:17.287Z,6.45
2022-08-18T18:35:00.506Z,5.78
2022-08-18T18:40:08.147Z,5.80
2022-08-18T18:42:39.087Z,6.93
2022-08-18T18:45:19.366Z,5.82
2022-08-18T18:48:09.684Z,6.43
2022-08-18T18:51:10.922Z,6.22
2022-08-18T18:54:02.179Z,6.03
2022-08-18T18:56:36.858Z,5.53
2022-08-18T18:59:35.434Z,6.65
2022-08-18T19:02:33.694Z,5.75
2022-08-18T19:05:17.935Z,5.93
2022-08-18T19:07:57.072Z,6.13
2022-08-18T19:10:29.727Z,5.93
2022-08-18T19:13:32.634Z,5.82
2022-08-18T19:16:23.422Z,5.38
2022-08-18T19:19:37.371Z,5.20
2022-08-18T19:22:04.682Z,6.07
2022-08-18T19:24:44.755Z,5.60
2022-08-18T19:27:24.428Z,5.35
2022-08-18T19:29:54.507Z,5.97
2022-08-18T19:32:27.893Z,5.60
2022-08-18T19:34:57.089Z,6.38
2022-08-18T19:37:51.164Z,5.72
2022-08-18T19:40:24.073Z,5.72
2022-08-18T19:43:19.453Z,5.68
2022-08-18T19:45:53.339Z,5.90
2022-08-18T19:48:26.714Z,5.85
2022-08-18T19:50:59.977Z,6.50
2022-08-18T19:53:52.814Z,6.72
2022-08-18T19:56:32.825Z,7.35
2022-08-18T19:59:17.826Z,6.25
2022-08-18T20:02:05.479Z,6.75
2022-08-18T20:04:53.815Z,7.53
2022-08-18T20:07:40.260Z,7.15
2022-08-18T20:10:24.609Z,6.63
2022-08-18T20:13:09.754Z,6.70
2022-08-18T20:16:12.819Z,6.55
2022-08-18T20:18:49.123Z,7.25
2022-08-18T20:21:16.133Z,7.15
2022-08-18T20:24:07.384Z,7.05
2022-08-18T20:26:39.866Z,7.30
2022-08-18T20:29:12.906Z,6.93
2022-08-18T20:31:45.843Z,7.22
2022-08-18T20:34:14.691Z,7.40
2022-08-18T20:36:43.942Z,7.75
2022-08-18T20:39:35.114Z,7.53
2022-08-18T20:42:05.035Z,7.93
2022-08-18T20:44:48.305Z,8.23
2022-08-18T20:47:48.981Z,7.50
2022-08-18T20:50:18.977Z,7.95
2022-08-18T20:53:02.124Z,8.52
2022-08-18T20:55:53.330Z,8.55
2022-08-18T20:58:26.366Z,8.13
2022-08-18T21:00:57.431Z,8.50
2022-08-18T21:03:37.711Z,8.50
2022-08-18T21:06:09.503Z,8.98
2022-08-18T21:08:44.256Z,9.18
2022-08-18T21:11:30.964Z,9.27
2022-08-18T21:14:03.918Z,9.05
2022-08-18T21:16:44.993Z,9.15
2022-08-18T21:19:25.066Z,9.20
2022-08-18T21:21:56.259Z,9.93
2022-08-18T21:24:34.457Z,9.27
2022-08-18T21:27:24.822Z,8.80
2022-08-18T21:29:52.837Z,8.70
2022-08-18T21:32:22.642Z,9.05
2022-08-18T21:34:51.218Z,9.05
2022-08-18T21:37:19.187Z,9.77
2022-08-18T21:39:54.240Z,9.27
2022-08-18T21:42:27.967Z,9.10
2022-08-18T21:45:00.727Z,10.32
2022-08-18T21:50:11.245Z,9.45
2022-08-18T21:52:51.059Z,11.88
2022-08-18T21:55:35.753Z,14.75
2022-08-18T21:58:02.936Z,22.58
2022-08-18T22:00:42.029Z,13.07
2022-08-18T22:03:17.000Z,11.30
2022-08-18T22:05:58.994Z,11.65
2022-08-18T22:08:30.143Z,11.83
2022-08-18T22:11:59.713Z,12.43
2022-08-18T22:14:26.972Z,11.60
2022-08-18T22:17:24.005Z,12.25
2022-08-18T22:19:51.610Z,12.23
2022-08-18T22:22:39.845Z,12.07
2022-08-18T22:25:08.467Z,12.65
2022-08-18T22:27:35.398Z,11.57
2022-08-18T22:30:06.456Z,11.48
2022-08-18T22:32:40.455Z,11.00
2022-08-18T22:35:11.374Z,11.15
2022-08-18T22:37:48.801Z,11.60
2022-08-18T22:40:21.847Z,13.15
2022-08-18T22:42:49.249Z,12.65
2022-08-18T22:45:16.268Z,13.00
2022-08-18T22:47:45.081Z,13.95
2022-08-18T22:50:13.108Z,14.00
2022-08-18T22:52:47.373Z,14.82
2022-08-18T22:55:21.670Z,14.40
2022-08-18T22:57:49.079Z,14.23
2022-08-18T23:00:21.016Z,14.25
2022-08-18T23:02:49.636Z,14.52
2022-08-18T23:05:16.477Z,15.20
2022-08-18T23:07:46.694Z,14.23
2022-08-18T23:10:16.562Z,14.27
2022-08-18T23:12:44.589Z,14.25
2022-08-18T23:15:14.158Z,15.90
2022-08-18T23:17:42.327Z,16.23
2022-08-18T23:20:17.809Z,16.38
2022-08-18T23:22:47.738Z,16.00
2022-08-18T23:25:14.811Z,17.10
2022-08-18T23:27:42.950Z,17.10
2022-08-18T23:30:11.019Z,15.77
2022-08-18T23:32:38.279Z,16.60
2022-08-18T23:35:05.818Z,17.17
2022-08-18T23:37:35.467Z,18.73
2022-08-18T23:40:02.235Z,19.05
2022-08-18T23:42:31.478Z,18.73
2022-08-18T23:45:03.492Z,19.63
2022-08-18T23:47:30.329Z,19.08
2022-08-18T23:49:57.598Z,19.65
2022-08-18T23:52:24.462Z,19.55
2022-08-18T23:54:51.250Z,19.50
2022-08-18T23:57:17.876Z,20.17
2022-08-18T23:59:44.941Z,20.48
